• Join FlightAware (Why Join?)
  • Login
  • US Flag 
05:47PM EDT


 

Airport Tracker/Info


-or-


 

Live Flight TrackerFlight Track Log ✈ ASQ4191 ✈ 19-Jun-2013 ✈ KEWR - KBNA

Flight Track Log - Related Links

Times and Time Zones

All times are in EDT time to prevent confusion due to time zone crossing. See the ASQ4191 flight status page for this flight to view local times or setup timezone preferences in your user account.

Time Position Orientation Groundspeed Altitude Reporting Facility
EDT Latitude Longitude Course Direction KTS MPH feet Rate Location/Type
07:24PM 40.7222 -74.1308 270° West 182 209 1,900  Level New York Center
07:25PM 40.7700 -74.1303 North 242 278 3,200 1,800 Climbing New York Center
07:26PM 40.7594 -74.2147 261° West 254 292 5,500 2,100 Climbing New York Center
07:27PM 40.7444 -74.2989 257° West 282 325 7,500 2,100 Climbing New York Center
07:28PM 40.6834 -74.8322 270° West  Level FlightAware Approximate
07:28PM 40.7411 -74.4083 268° West 287 330 9,800  Level New York Center
07:29PM 40.6833 -74.9653 270° West  Level FlightAware Approximate
07:29PM 40.7358 -74.5067 266° West 295 339 10,500  Level New York Center
07:30PM 40.7236 -74.6319 263° West 334 384 11,500 1,260 Climbing New York Center
07:31PM 40.7106 -74.7708 263° West 353 406 13,000 1,320 Climbing New York Center
07:32PM 40.6997 -74.9017 264° West 358 412 14,200 1,140 Climbing New York Center
07:33PM 40.6889 -75.0322 264° West 365 420 15,300 1,080 Climbing New York Center
07:34PM 40.6489 -75.1528 246° West 365 420 16,400 1,260 Climbing New York Center
07:35PM 40.5992 -75.2589 238° Southwest 370 426 17,800 1,380 Climbing New York Center
07:36PM 40.5444 -75.3811 240° Southwest 370 426 19,200 1,620 Climbing New York Center
07:37PM 40.4964 -75.4925 240° Southwest 370 426 21,100 1,860 Climbing New York Center
07:38PM 40.4464 -75.5956 238° Southwest 357 411 23,000 1,500 Climbing New York Center
07:39PM 40.3981 -75.7011 239° Southwest 351 404 24,100 1,020 Climbing New York Center
07:40PM 40.3497 -75.8094 240° Southwest 351 404 25,100 900 Climbing New York Center
07:41PM 40.2975 -75.9117 236° Southwest 356 410 26,000 420 Climbing New York Center
07:42PM 40.2444 -76.0247 238° Southwest 369 425 26,000 360 Level New York Center
07:43PM 40.1869 -76.1453 238° Southwest 381 438 26,800 840 Climbing New York Center
07:44PM 40.1336 -76.2608 239° Southwest 375 432 27,700 840 Climbing New York Center
07:45PM 40.0783 -76.3731 237° Southwest 375 432 28,600 900 Climbing New York Center
07:46PM 40.0292 -76.4856 240° Southwest 370 426 29,600 960 Climbing New York Center
07:48PM 39.9442 -76.6686 239° Southwest 358 412 31,200 960 Climbing Washington Center
07:49PM 39.8847 -76.7894 237° Southwest 353 406 32,200 960 Climbing Washington Center
07:50PM 39.8336 -76.9019 239° Southwest 359 413 33,200 900 Climbing Washington Center
07:51PM 39.7825 -77.0117 239° Southwest 359 413 34,100 900 Climbing Washington Center
07:52PM 39.7311 -77.1186 238° Southwest 354 407 35,100 900 Climbing Washington Center
07:53PM 39.6817 -77.2256 239° Southwest 354 407 36,000 420 Climbing Washington Center
07:54PM 39.6325 -77.3294 238° Southwest 354 407 36,000  Level Washington Center
07:55PM 39.5808 -77.4386 238° Southwest 354 407 36,000  Level Washington Center
07:56PM 39.5247 -77.5556 238° Southwest 360 414 36,000  Level Washington Center
07:57PM 39.4728 -77.6669 239° Southwest 365 420 36,000  Level Washington Center
07:58PM 39.4186 -77.7811 238° Southwest 370 426 36,000  Level Washington Center
07:59PM 39.3689 -77.8922 240° Southwest 370 426 36,000  Level Washington Center
08:00PM 39.3250 -78.0036 243° Southwest 365 420 36,000  Level Washington Center
08:01PM 39.2786 -78.1200 243° Southwest 360 414 36,000  Level Washington Center
08:02PM 39.2347 -78.2311 243° Southwest 360 414 36,000  Level Washington Center
08:03PM 39.1883 -78.3444 242° Southwest 360 414 36,000  Level Washington Center
08:04PM 39.1419 -78.4578 242° Southwest 360 414 36,000  Level Washington Center
08:05PM 39.0975 -78.5711 243° Southwest 360 414 36,000  Level Washington Center
08:06PM 39.0611 -78.6900 249° West 365 420 36,000  Level Washington Center
08:07PM 39.0328 -78.8169 254° West 365 420 36,000  Level Washington Center
08:08PM 39.0042 -78.9439 254° West 371 427 36,000  Level Washington Center
08:09PM 38.9736 -79.0733 253° West 377 434 36,000  Level Washington Center
08:10PM 38.9425 -79.2053 253° West 377 434 36,000  Level Washington Center
08:11PM 38.9114 -79.3372 253° West 377 434 36,000  Level Washington Center
08:12PM 38.8825 -79.4586 253° West 388 447 36,000  Level Washington Center
08:13PM 38.8486 -79.6058 254° West 388 447 36,000  Level Washington Center
08:14PM 38.8217 -79.7244 254° West 394 453 36,000  Level Washington Center
08:16PM 38.7619 -79.9522 251° West 384 442 36,000  Level Indianapolis Center
08:17PM 38.7317 -80.0822 253° West 382 440 36,000  Level Indianapolis Center
08:18PM 38.6989 -80.2125 252° West 383 441 36,000  Level Indianapolis Center
08:19PM 38.6661 -80.3442 252° West 386 444 36,000  Level Indianapolis Center
08:20PM 38.6344 -80.4764 253° West 388 447 36,000  Level Indianapolis Center
08:21PM 38.6022 -80.6078 253° West 387 445 36,000  Level Indianapolis Center
08:22PM 38.5683 -80.7417 252° West 394 453 36,000  Level Indianapolis Center
08:23PM 38.5278 -80.9014 252° West 394 453 36,000  Level Indianapolis Center
08:24PM 38.4942 -81.0358 252° West 396 456 36,000  Level Indianapolis Center
08:25PM 38.4600 -81.1717 252° West 399 459 36,000  Level Indianapolis Center
08:26PM 38.4253 -81.3069 252° West 397 457 36,000  Level Indianapolis Center
08:27PM 38.3903 -81.4431 252° West 400 460 36,000  Level Indianapolis Center
08:28PM 38.3561 -81.5794 252° West 400 460 36,000  Level Indianapolis Center
08:29PM 38.3200 -81.7161 251° West 404 465 36,000  Level Indianapolis Center
08:30PM 38.2850 -81.8519 252° West 403 464 36,000  Level Indianapolis Center
08:31PM 38.2497 -81.9881 252° West 404 465 36,000  Level Indianapolis Center
08:32PM 38.2128 -82.1231 251° West 404 465 36,000  Level Indianapolis Center
08:33PM 38.1767 -82.2600 251° West 406 467 36,000  Level Indianapolis Center
08:34PM 38.1333 -82.4225 251° West 404 465 36,000  Level Indianapolis Center
08:35PM 38.0986 -82.5500 251° West 406 467 36,000  Level Indianapolis Center
08:36PM 38.0628 -82.6853 251° West 405 466 36,000  Level Indianapolis Center
08:37PM 38.0206 -82.8408 251° West 401 461 36,000  Level Indianapolis Center
08:38PM 37.9833 -82.9769 251° West 406 467 36,000  Level Indianapolis Center
08:39PM 37.9469 -83.1106 251° West 402 463 36,000  Level Indianapolis Center
08:40PM 37.9100 -83.2458 251° West 406 467 36,000 -300 Level Indianapolis Center
08:41PM 37.8708 -83.3819 250° West 410 472 35,400 -960 Descending Indianapolis Center
08:42PM 37.8069 -83.5061 237° Southwest 420 483 34,100 -720 Descending Indianapolis Center
08:43PM 37.7400 -83.6281 235° Southwest 423 487 34,000 -60 Descending Indianapolis Center
08:44PM 37.6614 -83.7722 235° Southwest 427 491 34,000  Level Indianapolis Center
08:45PM 37.5919 -83.8975 235° Southwest 435 501 34,000  Level Indianapolis Center
08:46PM 37.5233 -84.0231 235° Southwest 436 502 34,000  Level Indianapolis Center
08:47PM 37.4556 -84.1475 236° Southwest 434 499 34,000 -720 Level Indianapolis Center
08:48PM 37.3881 -84.2717 236° Southwest 432 497 32,600 -1,500 Descending Indianapolis Center
08:49PM 37.3186 -84.3933 234° Southwest 429 494 31,000 -1,620 Descending Indianapolis Center
08:50PM 37.2386 -84.5367 235° Southwest 429 494 29,300 -1,320 Descending Indianapolis Center
08:51PM 37.1703 -84.6625 236° Southwest 438 504 28,400 -780 Descending Indianapolis Center
08:52PM 37.0981 -84.7881 234° Southwest 443 510 27,800 -540 Descending Indianapolis Center
08:54PM 37.0350 -84.9006 235° Southwest 447 514 27,400 -900 Descending Indianapolis Center
08:55PM 36.9481 -85.0547 235° Southwest 453 521 26,000 -1,500 Descending Indianapolis Center
08:56PM 36.8747 -85.1847 235° Southwest 457 526 24,400 -1,320 Descending Indianapolis Center
08:57PM 36.8031 -85.3108 235° Southwest 448 516 23,300 -1,080 Descending Indianapolis Center
08:59PM 36.6569 -85.5953 237° Southwest 454 522 21,000 -1,440 Descending Memphis Center
09:00PM 36.5972 -85.7228 240° Southwest 448 516 18,700 -2,160 Descending Memphis Center
09:01PM 36.5506 -85.8208 239° Southwest 422 486 17,100 -2,580 Descending Indianapolis Center
09:02PM 36.4861 -85.9589 240° Southwest 389 448 13,900 -3,000 Descending Indianapolis Center
09:03PM 36.4317 -86.0728 239° Southwest 380 437 11,000 -1,860 Descending Indianapolis Center
09:04PM 36.3794 -86.1808 239° Southwest 365 420 10,100 -480 Descending Indianapolis Center
09:05PM 36.3292 -86.2861 239° Southwest 354 407 10,100 -600 Level Indianapolis Center
09:06PM 36.2844 -86.3767 239° Southwest 325 374 8,900 -1,680 Descending Memphis Center
09:07PM 36.2492 -86.4531 240° Southwest 281 323 6,700 -1,500 Descending Memphis Center
09:08PM 36.2036 -86.5219 231° Southwest 260 299 6,000 -540 Descending Memphis Center
09:09PM 36.1397 -86.5481 198° South 245 282 5,700 -840 Descending Memphis Center
09:10PM 36.0778 -86.5742 199° South 245 282 4,400 -1,320 Descending Memphis Center